Dredge Wheeler — AEQZ — position and weather

sailwx.info

Track history (hours):
 
Tides and Currents Weather Stations Pressure Air Temp Water Temp Dewpoint Dewpoint Depression Visibility Wind Speed Wind Dir Waves Ship Positions

Dredge Wheeler

Last reported at 2018-Jul-23 11:00 UTC. Time now 2018-Jul-23 11:21 UTC.
Position N 29°42' W 093°20'.

Length 124 m; draft 9 m.

Type: Dredging. MMSI: 366982000.

Date/timePositionNaut miles runAvg speedWind from/ knotsBaromVisibWave heightAir tempDewpointWater temp
2018-Jul-23 11:00N 29°42' W 093°20'2 3.2
2018-Jul-23 10:30N 29°43' W 093°20'1 2.1
2018-Jul-23 10:00N 29°42' W 093°20'2 3.1
2018-Jul-23 09:23N 29°41' W 093°20'1 2.2
2018-Jul-23 09:00N 29°41' W 093°20'1 2.9
2018-Jul-23 08:29N 29°43' W 093°20'0 0.4
2018-Jul-23 07:57N 29°43' W 093°20'2 4.3
2018-Jul-23 07:29N 29°41' W 093°20'0 1.0
2018-Jul-23 07:00N 29°42' W 093°20'2 3.9
2018-Jul-23 06:30N 29°43' W 093°20'1 2.3
2018-Jul-23 05:59N 29°42' W 093°20'2 3.8
2018-Jul-23 05:30N 29°40' W 093°20'2 3.0
2018-Jul-23 05:00N 29°42' W 093°20'2 3.1
2018-Jul-23 04:30N 29°44' W 093°20'1 2.4
2018-Jul-23 03:56N 29°42' W 093°20'1 3.4
2018-Jul-23 03:30N 29°41' W 093°20'1 1.9
2018-Jul-23 02:59N 29°42' W 093°20'1 3.1
2018-Jul-23 02:30N 29°43' W 093°20'1 1.1
2018-Jul-23 01:57N 29°43' W 093°20'2 3.3
2018-Jul-23 01:28N 29°41' W 093°20'0 0.7
2018-Jul-23 00:58N 29°41' W 093°20'1 2.9
2018-Jul-23 00:28N 29°43' W 093°20'0 0.3
2018-Jul-22 23:48N 29°43' W 093°20'1 3.0
2018-Jul-22 23:30N 29°42' W 093°20'2 3.5
2018-Jul-22 22:58N 29°40' W 093°20'3 5.6
2018-Jul-22 22:31N 29°37' W 093°19'0 0.6
2018-Jul-22 22:01N 29°37' W 093°19'3 5.4
2018-Jul-22 21:25N 29°40' W 093°20'0 0.2
2018-Jul-22 19:25N 29°41' W 093°20'1 1.8
2018-Jul-22 18:58N 29°42' W 093°20'1 2.9
2018-Jul-22 18:30N 29°43' W 093°20'2 1.7
2018-Jul-22 17:17N 29°41' W 093°20'1 1.4
2018-Jul-22 16:53N 29°41' W 093°20'1 3.7
2018-Jul-22 16:30N 29°43' W 093°20'1 1.0
2018-Jul-22 15:59N 29°43' W 093°20'2 2.1
2018-Jul-22 14:59N 29°41' W 093°20'2 3.2
2018-Jul-22 14:30N 29°43' W 093°20'0 0.9
2018-Jul-22 13:57N 29°43' W 093°20'1 2.8
2018-Jul-22 13:29N 29°42' W 093°20'2 3.3
2018-Jul-22 13:00N 29°40' W 093°20'4 8.3
2018-Jul-22 12:30N 29°36' W 093°19'0 0.2
2018-Jul-22 12:00N 29°36' W 093°19'0 0.2
2018-Jul-22 11:30N 29°36' W 093°19'0 0.4
2018-Jul-22 11:00N 29°36' W 093°19'2 4.1
2018-Jul-22 10:30N 29°38' W 093°19'3 5.3
2018-Jul-22 10:00N 29°41' W 093°20'2 3.8
2018-Jul-22 09:30N 29°43' W 093°20'0 0.4
2018-Jul-22 09:00N 29°43' W 093°20'2 4.4
2018-Jul-22 08:30N 29°41' W 093°20'1 2.1
2018-Jul-22 08:00N 29°42' W 093°20'1 2.7
2018-Jul-22 07:30N 29°43' W 093°20'0 0.2
2018-Jul-22 07:00N 29°43' W 093°20'1 2.7
2018-Jul-22 06:30N 29°42' W 093°20'1 2.8
2018-Jul-22 06:01N 29°40' W 093°20'1 2.3
2018-Jul-22 05:30N 29°42' W 093°20'1 2.6
2018-Jul-22 05:00N 29°43' W 093°20'0 0.9
2018-Jul-22 04:30N 29°43' W 093°20'1 2.7
2018-Jul-22 04:00N 29°42' W 093°20'1 2.8
2018-Jul-22 03:30N 29°41' W 093°20'1 2.6
2018-Jul-22 03:00N 29°42' W 093°20'1 2.7
2018-Jul-22 02:30N 29°43' W 093°20'0 0.9
2018-Jul-22 02:00N 29°43' W 093°20'2 3.1
2018-Jul-22 01:30N 29°41' W 093°20'0 0.3
2018-Jul-22 01:00N 29°41' W 093°20'2 3.4
2018-Jul-22 00:24N 29°43' W 093°20'0 0.7
2018-Jul-22 00:00N 29°43' W 093°20'2 3.2
2018-Jul-21 23:30N 29°41' W 093°20'3 6.5
2018-Jul-21 23:00N 29°38' W 093°19'1 2.0
2018-Jul-21 22:30N 29°37' W 093°19'3 6.7
2018-Jul-21 22:00N 29°40' W 093°20'1 3.0
2018-Jul-21 21:30N 29°42' W 093°20'1 2.8
2018-Jul-21 21:00N 29°43' W 093°20'2 4.0
2018-Jul-21 20:30N 29°45' W 093°21'4 1.8
2018-Jul-21 18:05N 29°41' W 093°20'1 0.6
2018-Jul-21 16:02N 29°42' W 093°20'0 2.9
2018-Jul-21 16:00N 29°42' W 093°20'1 2.0
2018-Jul-21 15:19N 29°41' W 093°20'1 2.5
2018-Jul-21 14:46N 29°42' W 093°20'1 2.7
2018-Jul-21 14:30N 29°43' W 093°20'2 1.7
2018-Jul-21 13:13N 29°45' W 093°21'311.5
2018-Jul-21 12:56N 29°42' W 093°20'410.0
2018-Jul-21 12:30N 29°37' W 093°19'2 3.7
2018-Jul-21 12:00N 29°36' W 093°18'1 1.1
2018-Jul-21 11:30N 29°36' W 093°19'2 3.3
2018-Jul-21 11:00N 29°38' W 093°19'4 7.4
2018-Jul-21 10:30N 29°41' W 093°20'0 0.7
2018-Jul-21 09:58N 29°41' W 093°20'1 2.8
2018-Jul-21 09:30N 29°42' W 093°20'1 2.6
2018-Jul-21 09:00N 29°44' W 093°20'1 2.5
2018-Jul-21 08:30N 29°42' W 093°20'2 3.1
2018-Jul-21 08:00N 29°41' W 093°20'1 2.2
2018-Jul-21 07:30N 29°42' W 093°20'2 3.7
2018-Jul-21 07:01N 29°44' W 093°20'2 3.9
2018-Jul-21 06:30N 29°42' W 093°20'1 2.1
2018-Jul-21 06:00N 29°41' W 093°20'2 3.9
2018-Jul-21 05:30N 29°43' W 093°20'1 1.7
2018-Jul-21 05:00N 29°43' W 093°20'2 3.1
2018-Jul-21 04:30N 29°42' W 093°20'1 2.9
2018-Jul-21 04:00N 29°40' W 093°20'2 3.2
2018-Jul-21 03:30N 29°42' W 093°20'2 3.2
2018-Jul-21 03:00N 29°44' W 093°20'1 2.7
2018-Jul-21 02:30N 29°42' W 093°20'2 3.5
2018-Jul-21 02:00N 29°41' W 093°20'1 2.6
2018-Jul-21 01:30N 29°42' W 093°20'2 3.4
2018-Jul-21 01:00N 29°44' W 093°20'1 2.8
2018-Jul-21 00:30N 29°42' W 093°20'2 3.8
2018-Jul-21 00:00N 29°40' W 093°20'3 6.4
2018-Jul-20 23:30N 29°37' W 093°19'0 0.5
2018-Jul-20 23:00N 29°37' W 093°20'2 4.1
2018-Jul-20 22:30N 29°39' W 093°20'4 7.6
2018-Jul-20 22:00N 29°43' W 093°20'0 0.1
2018-Jul-20 21:29N 29°43' W 093°20'2 3.4
2018-Jul-20 20:57N 29°41' W 093°20'0 0.2
2018-Jul-20 20:30N 29°41' W 093°20'2 3.7
2018-Jul-20 19:57N 29°43' W 093°20'3 2.1
2018-Jul-20 18:42N 29°40' W 093°20'0 0.0
2018-Jul-20 16:42N 29°40' W 093°20'2 3.5
2018-Jul-20 16:15N 29°42' W 093°20'1 3.5
2018-Jul-20 15:55N 29°43' W 093°20'1 1.7
2018-Jul-20 15:17N 29°42' W 093°20'2 3.9
2018-Jul-20 14:51N 29°40' W 093°20'2 3.6
2018-Jul-20 14:25N 29°42' W 093°20'2 3.6
2018-Jul-20 13:53N 29°44' W 093°20'2 3.2
2018-Jul-20 13:16N 29°46' W 093°21'0 1.4
2018-Jul-20 12:57N 29°45' W 093°21'4 8.3
2018-Jul-20 12:26N 29°41' W 093°20'510.9
2018-Jul-20 11:57N 29°36' W 093°19'0 0.7
2018-Jul-20 11:26N 29°36' W 093°18'5 9.0
2018-Jul-20 10:53N 29°41' W 093°20'3 7.4
2018-Jul-20 10:30N 29°44' W 093°20'2 4.0
2018-Jul-20 09:59N 29°42' W 093°20'1 2.6
2018-Jul-20 09:30N 29°40' W 093°20'2 4.1
2018-Jul-20 09:00N 29°42' W 093°20'1 3.0
2018-Jul-20 08:30N 29°44' W 093°20'2 3.9
2018-Jul-20 07:54N 29°41' W 093°20'2 3.8
2018-Jul-20 07:29N 29°40' W 093°20'510.4
2018-Jul-20 07:00N 29°35' W 093°18'611.3
2018-Jul-20 06:28N 29°30' W 093°13'612.8
2018-Jul-20 06:00N 29°24' W 093°13'612.9
2018-Jul-20 05:30N 29°18' W 093°13'713.0
2018-Jul-20 05:00N 29°11' W 093°12'713.1
2018-Jul-20 04:28N 29°04' W 093°13'613.4
2018-Jul-20 04:00N 28°58' W 093°13'713.3
2018-Jul-20 03:30N 28°52' W 093°13'813.1
2018-Jul-20 02:55N 28°44' W 093°13'  
Track history (hours):
 
Tides and Currents Weather Stations Pressure Air Temp Water Temp Dewpoint Dewpoint Depression Visibility Wind Speed Wind Dir Waves Ship Positions

Dredge Wheeler

Last reported at 2018-Jul-23 11:00 UTC. Time now 2018-Jul-23 11:21 UTC.
Position N 29°42' W 093°20'.

Length 124 m; draft 9 m.

Type: Dredging. MMSI: 366982000.

Date/timePositionNaut miles runAvg speedWind from/ knotsBaromVisibWave heightAir tempDewpointWater temp
2018-Jul-23 11:00N 29°42' W 093°20'2 3.2
2018-Jul-23 10:30N 29°43' W 093°20'1 2.1
2018-Jul-23 10:00N 29°42' W 093°20'2 3.1
2018-Jul-23 09:23N 29°41' W 093°20'1 2.2
2018-Jul-23 09:00N 29°41' W 093°20'1 2.9
2018-Jul-23 08:29N 29°43' W 093°20'0 0.4
2018-Jul-23 07:57N 29°43' W 093°20'2 4.3
2018-Jul-23 07:29N 29°41' W 093°20'0 1.0
2018-Jul-23 07:00N 29°42' W 093°20'2 3.9
2018-Jul-23 06:30N 29°43' W 093°20'1 2.3
2018-Jul-23 05:59N 29°42' W 093°20'2 3.8
2018-Jul-23 05:30N 29°40' W 093°20'2 3.0
2018-Jul-23 05:00N 29°42' W 093°20'2 3.1
2018-Jul-23 04:30N 29°44' W 093°20'1 2.4
2018-Jul-23 03:56N 29°42' W 093°20'1 3.4
2018-Jul-23 03:30N 29°41' W 093°20'1 1.9
2018-Jul-23 02:59N 29°42' W 093°20'1 3.1
2018-Jul-23 02:30N 29°43' W 093°20'1 1.1
2018-Jul-23 01:57N 29°43' W 093°20'2 3.3
2018-Jul-23 01:28N 29°41' W 093°20'0 0.7
2018-Jul-23 00:58N 29°41' W 093°20'1 2.9
2018-Jul-23 00:28N 29°43' W 093°20'0 0.3
2018-Jul-22 23:48N 29°43' W 093°20'1 3.0
2018-Jul-22 23:30N 29°42' W 093°20'2 3.5
2018-Jul-22 22:58N 29°40' W 093°20'3 5.6
2018-Jul-22 22:31N 29°37' W 093°19'0 0.6
2018-Jul-22 22:01N 29°37' W 093°19'3 5.4
2018-Jul-22 21:25N 29°40' W 093°20'0 0.2
2018-Jul-22 19:25N 29°41' W 093°20'1 1.8
2018-Jul-22 18:58N 29°42' W 093°20'1 2.9
2018-Jul-22 18:30N 29°43' W 093°20'2 1.7
2018-Jul-22 17:17N 29°41' W 093°20'1 1.4
2018-Jul-22 16:53N 29°41' W 093°20'1 3.7
2018-Jul-22 16:30N 29°43' W 093°20'1 1.0
2018-Jul-22 15:59N 29°43' W 093°20'2 2.1
2018-Jul-22 14:59N 29°41' W 093°20'2 3.2
2018-Jul-22 14:30N 29°43' W 093°20'0 0.9
2018-Jul-22 13:57N 29°43' W 093°20'1 2.8
2018-Jul-22 13:29N 29°42' W 093°20'2 3.3
2018-Jul-22 13:00N 29°40' W 093°20'4 8.3
2018-Jul-22 12:30N 29°36' W 093°19'0 0.2
2018-Jul-22 12:00N 29°36' W 093°19'0 0.2
2018-Jul-22 11:30N 29°36' W 093°19'0 0.4
2018-Jul-22 11:00N 29°36' W 093°19'2 4.1
2018-Jul-22 10:30N 29°38' W 093°19'3 5.3
2018-Jul-22 10:00N 29°41' W 093°20'2 3.8
2018-Jul-22 09:30N 29°43' W 093°20'0 0.4
2018-Jul-22 09:00N 29°43' W 093°20'2 4.4
2018-Jul-22 08:30N 29°41' W 093°20'1 2.1
2018-Jul-22 08:00N 29°42' W 093°20'1 2.7
2018-Jul-22 07:30N 29°43' W 093°20'0 0.2
2018-Jul-22 07:00N 29°43' W 093°20'1 2.7
2018-Jul-22 06:30N 29°42' W 093°20'1 2.8
2018-Jul-22 06:01N 29°40' W 093°20'1 2.3
2018-Jul-22 05:30N 29°42' W 093°20'1 2.6
2018-Jul-22 05:00N 29°43' W 093°20'0 0.9
2018-Jul-22 04:30N 29°43' W 093°20'1 2.7
2018-Jul-22 04:00N 29°42' W 093°20'1 2.8
2018-Jul-22 03:30N 29°41' W 093°20'1 2.6
2018-Jul-22 03:00N 29°42' W 093°20'1 2.7
2018-Jul-22 02:30N 29°43' W 093°20'0 0.9
2018-Jul-22 02:00N 29°43' W 093°20'2 3.1
2018-Jul-22 01:30N 29°41' W 093°20'0 0.3
2018-Jul-22 01:00N 29°41' W 093°20'2 3.4
2018-Jul-22 00:24N 29°43' W 093°20'0 0.7
2018-Jul-22 00:00N 29°43' W 093°20'2 3.2
2018-Jul-21 23:30N 29°41' W 093°20'3 6.5
2018-Jul-21 23:00N 29°38' W 093°19'1 2.0
2018-Jul-21 22:30N 29°37' W 093°19'3 6.7
2018-Jul-21 22:00N 29°40' W 093°20'1 3.0
2018-Jul-21 21:30N 29°42' W 093°20'1 2.8
2018-Jul-21 21:00N 29°43' W 093°20'2 4.0
2018-Jul-21 20:30N 29°45' W 093°21'4 1.8
2018-Jul-21 18:05N 29°41' W 093°20'1 0.6
2018-Jul-21 16:02N 29°42' W 093°20'0 2.9
2018-Jul-21 16:00N 29°42' W 093°20'1 2.0
2018-Jul-21 15:19N 29°41' W 093°20'1 2.5
2018-Jul-21 14:46N 29°42' W 093°20'1 2.7
2018-Jul-21 14:30N 29°43' W 093°20'2 1.7
2018-Jul-21 13:13N 29°45' W 093°21'311.5
2018-Jul-21 12:56N 29°42' W 093°20'410.0
2018-Jul-21 12:30N 29°37' W 093°19'2 3.7
2018-Jul-21 12:00N 29°36' W 093°18'1 1.1
2018-Jul-21 11:30N 29°36' W 093°19'2 3.3
2018-Jul-21 11:00N 29°38' W 093°19'4 7.4
2018-Jul-21 10:30N 29°41' W 093°20'0 0.7
2018-Jul-21 09:58N 29°41' W 093°20'1 2.8
2018-Jul-21 09:30N 29°42' W 093°20'1 2.6
2018-Jul-21 09:00N 29°44' W 093°20'1 2.5
2018-Jul-21 08:30N 29°42' W 093°20'2 3.1
2018-Jul-21 08:00N 29°41' W 093°20'1 2.2
2018-Jul-21 07:30N 29°42' W 093°20'2 3.7
2018-Jul-21 07:01N 29°44' W 093°20'2 3.9
2018-Jul-21 06:30N 29°42' W 093°20'1 2.1
2018-Jul-21 06:00N 29°41' W 093°20'2 3.9
2018-Jul-21 05:30N 29°43' W 093°20'1 1.7
2018-Jul-21 05:00N 29°43' W 093°20'2 3.1
2018-Jul-21 04:30N 29°42' W 093°20'1 2.9
2018-Jul-21 04:00N 29°40' W 093°20'2 3.2
2018-Jul-21 03:30N 29°42' W 093°20'2 3.2
2018-Jul-21 03:00N 29°44' W 093°20'1 2.7
2018-Jul-21 02:30N 29°42' W 093°20'2 3.5
2018-Jul-21 02:00N 29°41' W 093°20'1 2.6
2018-Jul-21 01:30N 29°42' W 093°20'2 3.4
2018-Jul-21 01:00N 29°44' W 093°20'1 2.8
2018-Jul-21 00:30N 29°42' W 093°20'2 3.8
2018-Jul-21 00:00N 29°40' W 093°20'3 6.4
2018-Jul-20 23:30N 29°37' W 093°19'0 0.5
2018-Jul-20 23:00N 29°37' W 093°20'2 4.1
2018-Jul-20 22:30N 29°39' W 093°20'4 7.6
2018-Jul-20 22:00N 29°43' W 093°20'0 0.1
2018-Jul-20 21:29N 29°43' W 093°20'2 3.4
2018-Jul-20 20:57N 29°41' W 093°20'0 0.2
2018-Jul-20 20:30N 29°41' W 093°20'2 3.7
2018-Jul-20 19:57N 29°43' W 093°20'3 2.1
2018-Jul-20 18:42N 29°40' W 093°20'0 0.0
2018-Jul-20 16:42N 29°40' W 093°20'2 3.5
2018-Jul-20 16:15N 29°42' W 093°20'1 3.5
2018-Jul-20 15:55N 29°43' W 093°20'1 1.7
2018-Jul-20 15:17N 29°42' W 093°20'2 3.9
2018-Jul-20 14:51N 29°40' W 093°20'2 3.6
2018-Jul-20 14:25N 29°42' W 093°20'2 3.6
2018-Jul-20 13:53N 29°44' W 093°20'2 3.2
2018-Jul-20 13:16N 29°46' W 093°21'0 1.4
2018-Jul-20 12:57N 29°45' W 093°21'4 8.3
2018-Jul-20 12:26N 29°41' W 093°20'510.9
2018-Jul-20 11:57N 29°36' W 093°19'0 0.7
2018-Jul-20 11:26N 29°36' W 093°18'5 9.0
2018-Jul-20 10:53N 29°41' W 093°20'3 7.4
2018-Jul-20 10:30N 29°44' W 093°20'2 4.0
2018-Jul-20 09:59N 29°42' W 093°20'1 2.6
2018-Jul-20 09:30N 29°40' W 093°20'2 4.1
2018-Jul-20 09:00N 29°42' W 093°20'1 3.0
2018-Jul-20 08:30N 29°44' W 093°20'2 3.9
2018-Jul-20 07:54N 29°41' W 093°20'2 3.8
2018-Jul-20 07:29N 29°40' W 093°20'510.4
2018-Jul-20 07:00N 29°35' W 093°18'611.3
2018-Jul-20 06:28N 29°30' W 093°13'612.8
2018-Jul-20 06:00N 29°24' W 093°13'612.9
2018-Jul-20 05:30N 29°18' W 093°13'713.0
2018-Jul-20 05:00N 29°11' W 093°12'713.1
2018-Jul-20 04:28N 29°04' W 093°13'613.4
2018-Jul-20 04:00N 28°58' W 093°13'713.3
2018-Jul-20 03:30N 28°52' W 093°13'813.1
2018-Jul-20 02:55N 28°44' W 093°13'  

Dump ship's entire track history